SBMN/MAO METAR and TAF weather

Enter ICAO airport designator
Station Type Date Time Source
SBMN METAR 2019/05/26 23:00 UTC NOAA

SBMN 262300Z 07003KT CAVOK 29/23 Q1010


Station Type Date Time Source
SBMN Decoded METAR 2019/05/26 23:00 UTC NOAA

Manaus Aeroporto , Brazil (SBMN) 03-09S 059-59W 84M
May 26, 2019 - 07:00 PM EDT / 2019.05.26 2300 UTC
Wind: from the ENE (070 degrees) at 3 MPH (3 KT):0
Visibility: greater than 7 mile(s):0
Temperature: 84 F (29 C)
Dew Point: 73 F (23 C)
Relative Humidity: 70%
Pressure (altimeter): 29.83 in. Hg (1010 hPa)
ob: SBMN 262300Z 07003KT CAVOK 29/23 Q1010
cycle: 23

Station Type Date Time Source
SBMN TAF 2019/05/26 18:51 UTC NOAA

TAF SBMN 261600Z 2618/2706 11005KT 9999 SCT020 FEW025TCU TN23/2707Z T X29/2717Z PROB30 2620/2622 TS FEW020 FEW025CB
BECMG 2623/2701 36005KT 9999 FEW 015
RMK PEN

Example: see airport list